Time;durP1;ratioP1;P1;durP2;ratioP2;P2;SDS_P1;SDS_P2;PMS_P1;PMS_P2;Temp;Humidity;BMP_temperature;BMP_pressure;BME280_temperature;BME280_humidity;BME280_pressure;Samples;Min_cycle;Max_cycle;Signal;HPM_P1;HPM_P2
2021/04/10 00:02:15;;;;;;;5.28;1.30;;;3.80;99.90;;;;;;4877903;28;20083;-86
2021/04/10 00:04:38;;;;;;;11.23;1.65;;;;;;;;;;4878949;28;20961;-87
2021/04/10 00:07:01;;;;;;;11.98;1.90;;;3.80;99.90;;;;;;4876948;28;20145;-88
2021/04/10 00:09:23;;;;;;;11.35;1.73;;;3.90;99.90;;;;;;4878625;28;20088;-88
2021/04/10 00:11:46;;;;;;;10.07;1.50;;;3.80;99.90;;;;;;4879543;28;20513;-88
2021/04/10 00:14:12;;;;;;;9.43;1.80;;;3.80;99.90;;;;;;4880214;28;20087;-88
2021/04/10 00:16:36;;;;;;;11.05;1.52;;;3.80;99.90;;;;;;4881302;28;20125;-86
2021/04/10 00:18:58;;;;;;;7.53;1.40;;;3.80;99.90;;;;;;4877373;28;20091;-88
2021/04/10 00:21:21;;;;;;;7.85;1.60;;;3.70;99.90;;;;;;4879343;28;20691;-88
2021/04/10 00:23:43;;;;;;;9.15;1.65;;;3.70;99.90;;;;;;4877021;28;20092;-89
2021/04/10 00:26:06;;;;;;;11.40;1.52;;;3.70;99.90;;;;;;4871086;28;20091;-88
2021/04/10 00:28:29;;;;;;;17.10;1.98;;;3.70;99.90;;;;;;4879429;28;20094;-88
2021/04/10 00:31:06;;;;;;;11.20;1.77;;;3.80;99.90;;;;;;4878897;28;20084;-85
2021/04/10 00:33:29;;;;;;;9.98;1.52;;;3.80;99.90;;;;;;4877714;28;20222;-88
2021/04/10 00:35:52;;;;;;;11.82;1.65;;;;;;;;;;4875788;28;20094;-87
2021/04/10 00:38:15;;;;;;;8.95;1.67;;;3.90;99.90;;;;;;4874951;28;20095;-88
2021/04/10 00:40:38;;;;;;;11.15;1.70;;;3.90;99.90;;;;;;4881694;28;20114;-87
2021/04/10 00:43:01;;;;;;;9.48;1.77;;;3.90;99.90;;;;;;4879980;28;20127;-87
2021/04/10 00:45:23;;;;;;;10.02;1.67;;;3.90;99.90;;;;;;4880211;28;20113;-86
2021/04/10 00:47:46;;;;;;;12.02;1.88;;;3.90;99.90;;;;;;4876458;28;20115;-87
2021/04/10 00:50:13;;;;;;;8.60;1.63;;;3.90;99.90;;;;;;4875824;28;20098;-86
2021/04/10 00:52:38;;;;;;;14.18;2.20;;;3.80;99.90;;;;;;4886610;28;20105;-88
2021/04/10 00:55:03;;;;;;;10.52;1.90;;;3.80;99.90;;;;;;4860990;28;20092;-87
2021/04/10 00:57:25;;;;;;;11.52;2.08;;;3.80;99.90;;;;;;4858116;28;20169;-88
2021/04/10 00:59:48;;;;;;;12.13;1.50;;;3.80;99.90;;;;;;4858749;28;20550;-85
2021/04/10 01:02:11;;;;;;;12.38;2.33;;;3.70;99.90;;;;;;4861681;28;20100;-87
2021/04/10 01:04:34;;;;;;;14.23;1.98;;;3.60;99.90;;;;;;4881644;28;20114;-88
2021/04/10 01:07:00;;;;;;;9.95;2.08;;;;;;;;;;4879816;28;20103;-88
2021/04/10 01:09:22;;;;;;;15.05;2.05;;;3.50;99.90;;;;;;4880204;28;20098;-87
2021/04/10 01:12:01;;;;;;;13.15;1.92;;;3.40;99.90;;;;;;4882380;28;20099;-88
2021/04/10 01:14:33;;;;;;;7.93;1.40;;;3.30;99.90;;;;;;4879928;28;20090;-86
2021/04/10 01:17:00;;;;;;;14.20;2.08;;;3.20;99.90;;;;;;4879711;28;20531;-87
2021/04/10 01:19:48;;;;;;;3.88;1.40;;;3.00;99.90;;;;;;4879251;28;20094;-87
2021/04/10 01:22:24;;;;;;;7.18;1.45;;;2.90;99.90;;;;;;4877820;28;20087;-87
2021/04/10 01:24:57;;;;;;;9.25;2.38;;;2.70;99.90;;;;;;4876399;28;20087;-87
2021/04/10 01:27:36;;;;;;;10.80;1.85;;;2.70;99.90;;;;;;4880573;28;20114;-88
2021/04/10 01:30:04;;;;;;;15.48;1.92;;;2.60;99.90;;;;;;4873278;28;20083;-86
2021/04/10 01:32:32;;;;;;;7.35;1.90;;;2.60;99.90;;;;;;4878628;28;20095;-87
2021/04/10 01:35:01;;;;;;;10.35;1.77;;;2.40;99.90;;;;;;4876996;28;20084;-87
2021/04/10 01:37:28;;;;;;;8.10;1.60;;;2.40;99.90;;;;;;4875512;28;20095;-88
2021/04/10 01:39:51;;;;;;;11.30;2.10;;;2.40;99.90;;;;;;4877791;28;20088;-88
2021/04/10 01:42:19;;;;;;;12.98;2.63;;;2.40;99.90;;;;;;4877395;28;20095;-88
2021/04/10 01:44:42;;;;;;;12.43;2.40;;;2.40;99.90;;;;;;4877902;28;20095;-86
2021/04/10 01:47:08;;;;;;;11.07;2.05;;;2.30;99.90;;;;;;4878587;28;20096;-88
2021/04/10 01:49:31;;;;;;;8.52;2.00;;;2.20;99.90;;;;;;4875635;28;20604;-88
2021/04/10 01:51:54;;;;;;;12.48;2.50;;;2.30;99.90;;;;;;4883696;28;20121;-87
2021/04/10 01:54:19;;;;;;;12.40;1.70;;;2.30;99.90;;;;;;4882620;28;20103;-88
2021/04/10 01:56:45;;;;;;;8.23;2.22;;;2.40;99.90;;;;;;4859322;28;20084;-87
2021/04/10 01:59:08;;;;;;;21.00;2.53;;;2.50;99.90;;;;;;4883388;28;20095;-88
2021/04/10 02:01:31;;;;;;;10.60;2.70;;;2.60;99.90;;;;;;4883940;28;20091;-87
2021/04/10 02:03:55;;;;;;;8.95;2.30;;;;;;;;;;4878522;28;20126;-87
2021/04/10 02:06:18;;;;;;;10.70;2.65;;;2.80;99.90;;;;;;4886102;28;20098;-88
2021/04/10 02:08:43;;;;;;;21.95;3.70;;;2.80;99.90;;;;;;4885645;28;20433;-87
2021/04/10 02:11:06;;;;;;;11.02;2.53;;;2.80;99.90;;;;;;4884251;28;20087;-86
2021/04/10 02:13:30;;;;;;;9.05;2.03;;;2.80;99.90;;;;;;4882540;28;20110;-85
2021/04/10 02:15:53;;;;;;;9.52;2.20;;;2.70;99.90;;;;;;4883086;28;20088;-88
2021/04/10 02:18:16;;;;;;;10.82;1.95;;;;;;;;;;4884216;28;20126;-87
2021/04/10 02:20:39;;;;;;;9.10;2.20;;;2.70;99.90;;;;;;4880397;28;20111;-88
2021/04/10 02:23:03;;;;;;;18.15;2.67;;;2.70;99.90;;;;;;4884122;28;20095;-88
2021/04/10 02:25:27;;;;;;;13.70;2.70;;;2.60;99.90;;;;;;4886299;28;20087;-87
2021/04/10 02:27:49;;;;;;;7.10;2.25;;;2.60;99.90;;;;;;4882152;28;20103;-86
2021/04/10 02:30:15;;;;;;;7.25;2.10;;;2.60;99.90;;;;;;4883371;28;20095;-88
2021/04/10 02:32:40;;;;;;;;;;;2.50;99.90;;;;;;4870667;28;20084;-89
2021/04/10 02:35:09;;;;;;;12.05;2.25;;;2.50;99.90;;;;;;4877580;28;20332;-88
2021/04/10 02:37:34;;;;;;;7.57;2.50;;;2.40;99.90;;;;;;4883665;28;20209;-88
2021/04/10 02:39:57;;;;;;;10.80;1.83;;;2.30;99.90;;;;;;4883155;28;20438;-89
2021/04/10 02:42:22;;;;;;;10.63;2.33;;;2.30;99.90;;;;;;4882384;28;20453;-88
2021/04/10 02:44:49;;;;;;;13.20;2.75;;;2.30;99.90;;;;;;4882236;28;20097;-88
2021/04/10 02:47:17;;;;;;;12.50;3.38;;;2.30;99.90;;;;;;4882255;28;20554;-89
2021/04/10 02:49:41;;;;;;;19.05;2.35;;;;;;;;;;4885244;28;20150;-88
2021/04/10 02:52:06;;;;;;;13.95;2.65;;;2.40;99.90;;;;;;4884147;28;20506;-87
2021/04/10 02:54:35;;;;;;;12.88;2.20;;;2.40;99.90;;;;;;4880848;28;20091;-87
2021/04/10 02:57:04;;;;;;;10.20;2.45;;;2.50;99.90;;;;;;4873010;28;20088;-89
2021/04/10 02:59:29;;;;;;;11.43;2.60;;;3.90;99.90;;;;;;4882291;28;20091;-88
2021/04/10 03:01:53;;;;;;;18.60;2.58;;;2.50;99.90;;;;;;4860798;28;20091;-88
2021/04/10 03:04:16;;;;;;;13.35;2.92;;;2.50;99.90;;;;;;4864932;28;20146;-87
2021/04/10 03:06:40;;;;;;;12.75;2.65;;;2.60;99.90;;;;;;4859779;28;20091;-88
2021/04/10 03:09:03;;;;;;;26.40;2.63;;;2.70;99.90;;;;;;4862476;28;20088;-87
2021/04/10 03:11:27;;;;;;;27.77;2.75;;;2.70;99.90;;;;;;4859320;28;20147;-88
2021/04/10 03:13:49;;;;;;;14.32;2.85;;;2.70;99.90;;;;;;4885171;28;20095;-87
2021/04/10 03:16:12;;;;;;;10.20;2.45;;;2.70;99.90;;;;;;4879859;28;20554;-87
2021/04/10 03:18:35;;;;;;;15.60;3.40;;;2.80;99.90;;;;;;4878422;28;20149;-87
2021/04/10 03:20:58;;;;;;;12.60;2.92;;;2.80;99.90;;;;;;4882533;28;20103;-85
2021/04/10 03:23:21;;;;;;;11.88;2.53;;;2.80;99.90;;;;;;4883459;28;20083;-87
2021/04/10 03:25:43;;;;;;;16.50;3.30;;;2.80;99.90;;;;;;4879847;28;20087;-87
2021/04/10 03:28:08;;;;;;;22.63;3.30;;;2.90;99.90;;;;;;4881159;28;20095;-85
2021/04/10 03:30:33;;;;;;;18.58;3.47;;;2.90;99.90;;;;;;4883112;28;20137;-86
2021/04/10 03:32:57;;;;;;;15.70;2.83;;;2.90;99.90;;;;;;4882789;28;20080;-87
2021/04/10 03:35:26;;;;;;;14.48;3.13;;;2.90;99.90;;;;;;4878255;28;20133;-87
2021/04/10 03:37:49;;;;;;;11.05;2.72;;;;;;;;;;4881033;28;20091;-88
2021/04/10 03:40:12;;;;;;;16.48;3.33;;;2.90;99.90;;;;;;4883964;28;20087;-85
2021/04/10 03:42:40;;;;;;;11.27;3.17;;;2.90;99.90;;;;;;4879342;28;20502;-82
2021/04/10 03:45:05;;;;;;;12.93;3.85;;;2.90;99.90;;;;;;4881745;28;20488;-88
2021/04/10 03:47:28;;;;;;;20.27;3.50;;;;;;;;;;4880836;28;20088;-88
2021/04/10 03:49:51;;;;;;;15.98;3.25;;;2.90;99.90;;;;;;4880637;28;20083;-88
2021/04/10 03:52:14;;;;;;;16.80;3.20;;;2.90;99.90;;;;;;4878444;28;20153;-86
2021/04/10 03:54:37;;;;;;;13.95;2.88;;;2.90;99.90;;;;;;4882019;28;20776;-88
2021/04/10 03:56:59;;;;;;;13.55;2.75;;;2.80;99.90;;;;;;4881575;28;20112;-87
2021/04/10 03:59:21;;;;;;;16.48;3.40;;;2.80;99.90;;;;;;4882563;28;20092;-88
2021/04/10 04:01:45;;;;;;;18.33;2.72;;;2.80;99.90;;;;;;4879844;28;20099;-86
2021/04/10 04:04:08;;;;;;;16.15;2.97;;;2.70;99.90;;;;;;4878778;28;20098;-87
2021/04/10 04:06:31;;;;;;;12.70;3.00;;;2.70;99.90;;;;;;4879163;28;20083;-86
2021/04/10 04:08:53;;;;;;;16.77;2.72;;;2.60;99.90;;;;;;4879436;28;20588;-88
2021/04/10 04:11:16;;;;;;;13.32;3.22;;;2.60;99.90;;;;;;4881708;28;20095;-88
2021/04/10 04:13:38;;;;;;;10.52;2.65;;;2.40;99.90;;;;;;4878986;28;20095;-87
2021/04/10 04:16:01;;;;;;;12.98;2.55;;;2.30;99.90;;;;;;4880058;28;20092;-87
2021/04/10 04:18:24;;;;;;;20.63;3.15;;;2.30;99.90;;;;;;4878940;28;20090;-83
2021/04/10 04:20:47;;;;;;;14.38;3.35;;;2.20;99.90;;;;;;4879081;28;20086;-86
2021/04/10 04:23:09;;;;;;;26.45;3.40;;;2.20;99.90;;;;;;4877116;28;20540;-87
2021/04/10 04:25:32;;;;;;;11.75;2.72;;;2.20;99.90;;;;;;4881363;28;20083;-87
2021/04/10 04:27:54;;;;;;;12.65;3.38;;;2.20;99.90;;;;;;4877585;28;20091;-87
2021/04/10 04:30:19;;;;;;;12.27;2.95;;;2.20;99.90;;;;;;4879996;28;20087;-88
2021/04/10 04:32:41;;;;;;;18.35;3.53;;;2.20;99.90;;;;;;4878257;28;20084;-88
2021/04/10 04:35:06;;;;;;;7.00;2.70;;;;;;;;;;4872982;28;20091;-88
2021/04/10 04:37:28;;;;;;;21.17;3.10;;;2.20;99.90;;;;;;4876543;28;20134;-86
2021/04/10 04:39:51;;;;;;;20.50;3.10;;;2.20;99.90;;;;;;4879178;28;20080;-86
2021/04/10 04:42:13;;;;;;;10.73;3.28;;;2.20;99.90;;;;;;4879344;28;20600;-87
2021/04/10 04:44:36;;;;;;;8.65;2.85;;;2.20;99.90;;;;;;4880750;28;20090;-87
2021/04/10 04:46:58;;;;;;;15.02;3.15;;;2.20;99.90;;;;;;4881470;28;20095;-88
2021/04/10 04:49:21;;;;;;;19.85;3.72;;;2.20;99.90;;;;;;4879882;28;20079;-83
2021/04/10 04:51:44;;;;;;;21.15;3.33;;;2.20;99.90;;;;;;4879155;28;20103;-85
2021/04/10 04:54:07;;;;;;;7.57;2.67;;;2.30;99.90;;;;;;4881052;28;20091;-88
2021/04/10 04:56:29;;;;;;;19.20;4.00;;;2.30;99.90;;;;;;4877810;28;20509;-87
2021/04/10 04:58:52;;;;;;;15.77;3.92;;;2.30;99.90;;;;;;4880502;28;20087;-88
2021/04/10 05:01:15;;;;;;;13.32;3.22;;;2.30;99.90;;;;;;4879921;28;20095;-83
2021/04/10 05:03:37;;;;;;;15.82;3.30;;;2.30;99.90;;;;;;4879097;28;20359;-87
2021/04/10 05:06:00;;;;;;;19.80;3.90;;;2.30;99.90;;;;;;4878192;28;20091;-88
2021/04/10 05:08:23;;;;;;;17.63;3.92;;;2.30;99.90;;;;;;4875664;28;20094;-87
2021/04/10 05:10:46;;;;;;;9.88;3.15;;;2.20;99.90;;;;;;4878693;28;20125;-88
2021/04/10 05:13:09;;;;;;;14.20;3.45;;;2.20;99.90;;;;;;4861926;28;20545;-87
2021/04/10 05:15:31;;;;;;;13.02;4.13;;;2.20;99.90;;;;;;4860900;28;20539;-88
2021/04/10 05:17:54;;;;;;;20.05;4.68;;;2.30;99.90;;;;;;4857972;28;20099;-88
2021/04/10 05:20:17;;;;;;;14.52;4.28;;;2.40;99.90;;;;;;4856326;28;20096;-88
2021/04/10 05:22:40;;;;;;;17.08;4.43;;;;;;;;;;4877932;28;20091;-85
2021/04/10 05:25:04;;;;;;;36.72;4.65;;;2.60;99.90;;;;;;4883653;28;20106;-87
2021/04/10 05:27:26;;;;;;;16.27;3.90;;;2.60;99.90;;;;;;4884232;28;20079;-86
2021/04/10 05:29:49;;;;;;;24.23;3.85;;;2.70;99.90;;;;;;4876913;28;20091;-88
2021/04/10 05:32:12;;;;;;;14.63;4.25;;;;;;;;;;4879793;28;20594;-87
2021/04/10 05:34:35;;;;;;;18.98;4.50;;;2.90;99.90;;;;;;4883845;28;21209;-87
2021/04/10 05:36:57;;;;;;;13.27;3.92;;;3.00;99.90;;;;;;4883811;28;20087;-86
2021/04/10 05:39:20;;;;;;;12.27;3.55;;;;;;;;;;4881397;28;20247;-87
2021/04/10 05:41:43;;;;;;;24.70;4.38;;;3.30;99.90;;;;;;4882103;28;20087;-87
2021/04/10 05:44:06;;;;;;;15.60;4.18;;;3.30;99.90;;;;;;4879705;28;20102;-88
2021/04/10 05:46:29;;;;;;;25.23;4.72;;;3.30;99.90;;;;;;4882050;28;20083;-86
2021/04/10 05:48:51;;;;;;;20.25;4.50;;;3.40;99.90;;;;;;4881100;28;20087;-87
2021/04/10 05:51:14;;;;;;;33.03;5.15;;;3.50;99.90;;;;;;4882935;28;20091;-87
2021/04/10 05:53:38;;;;;;;15.20;4.40;;;3.60;99.90;;;;;;4882053;28;20118;-87
2021/04/10 05:56:01;;;;;;;18.08;4.38;;;3.60;99.90;;;;;;4874387;28;20092;-85
2021/04/10 05:58:24;;;;;;;20.38;5.13;;;3.50;99.90;;;;;;4864135;28;20118;-87
2021/04/10 06:00:46;;;;;;;19.48;4.07;;;3.60;99.90;;;;;;4881429;28;20088;-92
2021/04/10 06:03:09;;;;;;;21.77;3.90;;;3.90;99.90;;;;;;4883669;28;20090;-88
2021/04/10 06:05:31;;;;;;;12.93;3.63;;;4.40;99.90;;;;;;4884640;28;20095;-87
2021/04/10 06:07:54;;;;;;;18.90;3.85;;;4.80;99.90;;;;;;4878617;28;20087;-87
2021/04/10 06:10:18;;;;;;;19.48;4.20;;;;;;;;;;4881614;28;20088;-84
2021/04/10 06:12:41;;;;;;;16.83;3.67;;;5.50;99.90;;;;;;4885256;28;20097;-87
2021/04/10 06:15:07;;;;;;;16.80;2.80;;;5.40;99.90;;;;;;4882468;28;20501;-87
2021/04/10 06:17:30;;;;;;;17.50;3.10;;;5.80;99.90;;;;;;4882360;28;20087;-86
2021/04/10 06:19:53;;;;;;;12.57;2.85;;;5.90;99.90;;;;;;4881316;28;20096;-88
2021/04/10 06:22:15;;;;;;;11.55;1.88;;;5.90;99.90;;;;;;4882936;28;20083;-88
2021/04/10 06:24:39;;;;;;;13.40;2.05;;;5.90;99.90;;;;;;4884123;28;20098;-88
2021/04/10 06:27:02;;;;;;;5.13;1.33;;;5.90;99.90;;;;;;4881732;28;20101;-87
2021/04/10 06:29:25;;;;;;;9.50;1.67;;;6.00;99.90;;;;;;4880812;28;20082;-88
2021/04/10 06:31:48;;;;;;;10.30;1.50;;;6.00;99.90;;;;;;4873362;28;20743;-87
2021/04/10 06:34:11;;;;;;;7.35;1.30;;;6.00;99.90;;;;;;4882951;28;20148;-87
2021/04/10 06:36:33;;;;;;;7.88;1.30;;;6.40;99.90;;;;;;4880187;28;20078;-87
2021/04/10 06:38:56;;;;;;;8.77;1.10;;;6.60;99.90;;;;;;4878482;28;20086;-88
2021/04/10 06:41:20;;;;;;;9.40;1.30;;;7.10;99.90;;;;;;4878078;28;20094;-86
2021/04/10 06:43:43;;;;;;;8.40;1.10;;;;;;;;;;4882712;28;20119;-85
2021/04/10 06:46:05;;;;;;;10.55;1.75;;;6.70;99.90;;;;;;4884746;28;20457;-88
2021/04/10 06:48:29;;;;;;;11.00;1.20;;;;;;;;;;4881351;28;20131;-87
2021/04/10 06:50:52;;;;;;;10.50;1.27;;;6.10;99.90;;;;;;4881651;28;20088;-88
2021/04/10 06:53:17;;;;;;;10.70;1.02;;;6.30;99.90;;;;;;4882754;28;20119;-87
2021/04/10 06:55:44;;;;;;;12.27;1.20;;;6.20;99.90;;;;;;4885207;28;20083;-88
2021/04/10 06:58:11;;;;;;;14.02;1.20;;;6.70;99.90;;;;;;4879013;28;20089;-88
2021/04/10 07:00:36;;;;;;;9.80;1.45;;;7.30;99.90;;;;;;4878769;28;20098;-87
2021/04/10 07:03:02;;;;;;;10.55;1.10;;;7.20;99.90;;;;;;4880101;28;20086;-87
2021/04/10 07:05:27;;;;;;;8.60;1.00;;;6.90;99.90;;;;;;4855388;28;20445;-88
2021/04/10 07:07:51;;;;;;;10.53;1.40;;;6.70;99.90;;;;;;4884005;28;20090;-86
2021/04/10 07:10:14;;;;;;;9.88;1.05;;;;;;;;;;4879147;28;20091;-86
2021/04/10 07:12:38;;;;;;;7.45;1.48;;;6.60;99.90;;;;;;4881170;28;20152;-87
2021/04/10 07:15:00;;;;;;;8.48;0.77;;;6.60;99.90;;;;;;4881138;28;20108;-86
2021/04/10 07:17:23;;;;;;;12.73;1.23;;;6.40;99.90;;;;;;4880705;28;20087;-87
2021/04/10 07:19:45;;;;;;;5.47;1.17;;;6.30;99.90;;;;;;4882822;28;20095;-86
2021/04/10 07:22:11;;;;;;;4.97;0.77;;;6.40;99.90;;;;;;4881999;28;20145;-87
2021/04/10 07:24:43;;;;;;;8.15;0.90;;;6.90;99.90;;;;;;4880915;28;20174;-87
2021/04/10 07:27:07;;;;;;;7.03;1.02;;;7.00;99.90;;;;;;4881260;28;20491;-87
2021/04/10 07:29:31;;;;;;;6.93;0.98;;;7.40;99.90;;;;;;4882213;28;20082;-88
2021/04/10 07:31:54;;;;;;;11.80;1.48;;;7.60;99.90;;;;;;4877459;28;20505;-86
2021/04/10 07:34:21;;;;;;;5.82;1.38;;;7.30;99.90;;;;;;4881395;28;20098;-84
2021/04/10 07:36:43;;;;;;;7.82;1.20;;;7.60;99.90;;;;;;4895334;28;20114;-87
2021/04/10 07:39:07;;;;;;;9.82;1.10;;;7.80;99.90;;;;;;4877515;28;20089;-86
2021/04/10 07:41:29;;;;;;;9.70;0.90;;;7.90;99.90;;;;;;4879086;28;20439;-85
2021/04/10 07:43:52;;;;;;;4.93;0.77;;;;;;;;;;4881128;28;20535;-83
2021/04/10 07:46:26;;;;;;;3.15;0.57;;;8.50;99.90;;;;;;4881352;28;20096;-85
2021/04/10 07:49:09;;;;;;;9.45;1.08;;;7.90;99.90;;;;;;4877611;28;20445;-84
2021/04/10 07:51:34;;;;;;;9.38;1.13;;;7.80;99.90;;;;;;4879263;28;20094;-84
2021/04/10 07:53:58;;;;;;;2.83;0.60;;;8.00;99.90;;;;;;4878664;28;20441;-85
2021/04/10 07:56:22;;;;;;;7.30;0.90;;;8.20;99.90;;;;;;4881992;28;20120;-86
2021/04/10 07:58:44;;;;;;;3.50;0.80;;;8.40;99.90;;;;;;4879585;28;20088;-88
2021/04/10 08:01:08;;;;;;;8.88;1.70;;;8.20;99.90;;;;;;4875348;28;20143;-89
2021/04/10 08:03:33;;;;;;;7.05;0.85;;;8.40;99.90;;;;;;4841897;28;20440;-86
2021/04/10 08:05:56;;;;;;;5.32;0.70;;;8.50;99.90;;;;;;4857924;28;20537;-85
2021/04/10 08:08:23;;;;;;;5.13;1.00;;;8.80;99.90;;;;;;4859394;28;20529;-91
2021/04/10 08:10:47;;;;;;;9.20;1.27;;;8.60;99.90;;;;;;4872492;28;20088;-89
2021/04/10 08:13:10;;;;;;;7.70;0.98;;;7.90;99.90;;;;;;4879369;28;20081;-88
2021/04/10 08:15:33;;;;;;;2.60;0.50;;;7.60;99.90;;;;;;4881972;28;20094;-85
2021/04/10 08:17:55;;;;;;;7.72;1.00;;;6.90;99.90;;;;;;4883518;28;20082;-87
2021/04/10 08:20:22;;;;;;;4.20;0.60;;;6.90;99.90;;;;;;4880556;28;20164;-88
2021/04/10 08:22:45;;;;;;;9.43;0.77;;;7.90;99.90;;;;;;4880504;28;20090;-90
2021/04/10 08:25:09;;;;;;;7.68;1.05;;;9.10;99.90;;;;;;4878666;28;20085;-89
2021/04/10 08:27:32;;;;;;;9.50;0.82;;;10.00;99.90;;;;;;4875877;28;20096;-89
2021/04/10 08:29:55;;;;;;;7.35;0.88;;;11.00;99.90;;;;;;4882313;28;20092;-84
2021/04/10 08:32:18;;;;;;;7.95;0.80;;;10.50;99.90;;;;;;4878642;28;20570;-87
2021/04/10 08:34:43;;;;;;;7.38;0.80;;;9.90;99.90;;;;;;4881649;28;20096;-87
2021/04/10 08:37:08;;;;;;;7.47;1.00;;;10.20;99.90;;;;;;4877461;28;20084;-88
2021/04/10 08:39:35;;;;;;;5.55;0.75;;;10.10;99.90;;;;;;4863204;28;20100;-88
2021/04/10 08:41:59;;;;;;;5.07;0.80;;;10.40;99.90;;;;;;4858839;28;20096;-84
2021/04/10 08:44:28;;;;;;;6.72;1.05;;;10.90;99.90;;;;;;4857404;28;20085;-89
2021/04/10 08:46:53;;;;;;;8.68;1.05;;;11.80;99.90;;;;;;4874200;28;20074;-88
2021/04/10 08:49:17;;;;;;;5.27;1.10;;;11.30;99.90;;;;;;4884058;28;20162;-89
2021/04/10 08:51:41;;;;;;;5.50;0.60;;;10.90;98.80;;;;;;4878468;28;20217;-88
2021/04/10 08:54:08;;;;;;;7.03;0.75;;;11.00;99.90;;;;;;4876705;28;20084;-87
2021/04/10 08:56:30;;;;;;;9.43;1.20;;;10.60;98.60;;;;;;4882864;28;20080;-90
2021/04/10 08:58:53;;;;;;;6.60;0.95;;;;;;;;;;4877120;28;20084;-88
2021/04/10 09:01:19;;;;;;;4.55;0.63;;;10.80;96.90;;;;;;4859845;28;20076;-88
2021/04/10 09:03:53;;;;;;;5.35;0.95;;;10.20;96.10;;;;;;4861217;28;20103;-89
2021/04/10 09:06:34;;;;;;;8.70;0.65;;;10.30;98.50;;;;;;4862682;28;20104;-88
2021/04/10 09:09:31;;;;;;;5.05;0.63;;;10.80;94.70;;;;;;4855533;28;20099;-89
2021/04/10 09:12:22;;;;;;;2.33;0.40;;;10.80;93.40;;;;;;4851559;28;20089;-89
2021/04/10 09:14:47;;;;;;;2.85;0.60;;;10.90;93.30;;;;;;4833241;28;20092;-88
2021/04/10 09:17:23;;;;;;;6.15;0.50;;;10.40;93.80;;;;;;4839313;28;20103;-86
2021/04/10 09:19:57;;;;;;;7.05;0.98;;;10.40;96.00;;;;;;4823254;28;20154;-87
2021/04/10 09:22:26;;;;;;;3.00;0.60;;;9.90;95.00;;;;;;4842775;28;20419;-90
2021/04/10 09:25:15;;;;;;;4.03;0.45;;;9.80;96.90;;;;;;4823771;28;20544;-88
2021/04/10 09:28:04;;;;;;;7.53;0.90;;;9.40;97.20;;;;;;4807431;28;20127;-87
2021/04/10 09:30:39;;;;;;;4.90;0.80;;;9.40;96.20;;;;;;4831037;28;20088;-84
2021/04/10 09:33:37;;;;;;;4.95;0.90;;;9.80;95.20;;;;;;4838651;28;20497;-84
2021/04/10 09:36:01;;;;;;;5.88;0.65;;;9.70;95.30;;;;;;4859050;28;20101;-84
2021/04/10 09:38:40;;;;;;;4.65;0.68;;;9.50;96.60;;;;;;4842943;28;20371;-88
2021/04/10 09:41:08;;;;;;;8.38;0.85;;;9.30;96.60;;;;;;4835655;28;20081;-87
2021/04/10 09:43:32;;;;;;;4.85;0.55;;;9.00;97.10;;;;;;4842337;28;20154;-86
2021/04/10 09:46:10;;;;;;;4.10;0.50;;;9.00;95.10;;;;;;4852383;28;20623;-87
2021/04/10 09:48:54;;;;;;;3.25;0.50;;;8.90;96.70;;;;;;4834990;28;20094;-87
2021/04/10 09:51:20;;;;;;;3.95;0.88;;;;;;;;;;4850349;28;20118;-87
2021/04/10 09:53:51;;;;;;;5.68;0.60;;;9.10;97.70;;;;;;4845596;28;20081;-86
2021/04/10 09:56:17;;;;;;;6.15;0.90;;;9.10;97.00;;;;;;4815003;28;20096;-85
2021/04/10 09:58:55;;;;;;;6.10;0.68;;;9.10;99.30;;;;;;4845267;28;20092;-90
2021/04/10 10:01:23;;;;;;;2.65;0.50;;;9.40;97.10;;;;;;4847560;28;20094;-90
2021/04/10 10:03:49;;;;;;;9.02;1.00;;;9.30;96.50;;;;;;4857106;28;20102;-86
2021/04/10 10:06:27;;;;;;;7.10;0.52;;;9.60;97.90;;;;;;4839107;28;20111;-88
2021/04/10 10:08:50;;;;;;;5.38;0.68;;;9.70;98.30;;;;;;4852243;28;20084;-87
2021/04/10 10:11:23;;;;;;;7.75;1.02;;;9.40;95.20;;;;;;4856272;28;20169;-87
2021/04/10 10:13:49;;;;;;;1.10;0.38;;;9.40;95.90;;;;;;4852809;28;20136;-86
2021/04/10 10:16:25;;;;;;;;;;;9.40;97.00;;;;;;4836131;28;20088;-87
2021/04/10 10:18:54;;;;;;;3.83;0.77;;;9.90;97.20;;;;;;4833606;28;20402;-86
2021/04/10 10:21:22;;;;;;;8.77;0.57;;;10.20;94.80;;;;;;4837866;28;20090;-88
2021/04/10 10:24:01;;;;;;;3.90;0.50;;;9.80;93.30;;;;;;4848554;28;20123;-87
2021/04/10 10:26:36;;;;;;;4.22;0.50;;;10.00;92.70;;;;;;4866803;28;20093;-88
2021/04/10 10:29:00;;;;;;;4.53;0.50;;;10.00;94.90;;;;;;4850497;28;20145;-88
2021/04/10 10:31:28;;;;;;;8.75;1.08;;;10.40;96.10;;;;;;4853567;28;20535;-85
2021/04/10 10:33:51;;;;;;;2.47;1.00;;;10.10;97.70;;;;;;4839634;28;20457;-89
2021/04/10 10:36:24;;;;;;;5.03;1.10;;;9.90;97.20;;;;;;4858570;28;20499;-89
2021/04/10 10:38:58;;;;;;;7.63;1.13;;;10.10;96.60;;;;;;4857128;28;20459;-87
2021/04/10 10:41:26;;;;;;;3.95;0.70;;;10.00;97.30;;;;;;4844884;28;20607;-89
2021/04/10 10:44:01;;;;;;;12.07;0.93;;;10.30;96.50;;;;;;4840108;28;20143;-85
2021/04/10 10:46:24;;;;;;;4.68;0.60;;;10.10;96.30;;;;;;4895128;28;20489;-87
2021/04/10 10:48:52;;;;;;;13.50;1.00;;;10.40;95.90;;;;;;4872718;28;20092;-87
2021/04/10 10:51:16;;;;;;;4.05;1.30;;;10.80;95.70;;;;;;4881677;28;20530;-87
2021/04/10 10:53:41;;;;;;;4.93;0.75;;;10.90;95.90;;;;;;4881740;28;20449;-88
2021/04/10 10:56:08;;;;;;;3.63;0.80;;;11.40;96.50;;;;;;4881811;28;20096;-89
2021/04/10 10:58:32;;;;;;;6.88;0.85;;;11.20;93.10;;;;;;4877522;28;20079;-89
2021/04/10 11:00:55;;;;;;;8.43;0.82;;;9.70;95.90;;;;;;4872142;28;20562;-89
2021/04/10 11:03:21;;;;;;;10.60;0.68;;;;;;;;;;4880804;28;20119;-90
2021/04/10 11:05:49;;;;;;;5.03;0.75;;;9.80;98.60;;;;;;4880836;28;20119;-89
2021/04/10 11:08:12;;;;;;;4.05;0.85;;;10.20;97.30;;;;;;4879579;28;20080;-86
2021/04/10 11:10:36;;;;;;;2.85;0.90;;;11.00;95.00;;;;;;4880952;28;20102;-86
2021/04/10 11:13:00;;;;;;;4.00;1.33;;;;;;;;;;4881278;28;20149;-86
2021/04/10 11:15:22;;;;;;;4.95;1.27;;;11.20;99.30;;;;;;4869218;28;20094;-88
2021/04/10 11:17:45;;;;;;;5.05;0.60;;;10.90;96.40;;;;;;4884262;28;20087;-89
2021/04/10 11:20:29;;;;;;;5.70;0.88;;;11.00;99.30;;;;;;4865724;28;20088;-88
2021/04/10 11:23:03;;;;;;;7.78;0.98;;;10.80;96.50;;;;;;4880417;28;20519;-90
2021/04/10 11:25:25;;;;;;;5.45;1.40;;;10.20;95.80;;;;;;4878570;28;20116;-87
2021/04/10 11:27:48;;;;;;;4.20;0.98;;;9.90;95.20;;;;;;4873602;28;20087;-90
2021/04/10 11:30:14;;;;;;;6.43;0.70;;;10.10;95.70;;;;;;4877543;28;20383;-90
2021/04/10 11:32:40;;;;;;;5.20;0.80;;;10.60;94.80;;;;;;4878735;28;20093;-88
2021/04/10 11:35:06;;;;;;;3.78;0.77;;;10.60;95.50;;;;;;4878235;28;20072;-87
2021/04/10 11:37:47;;;;;;;4.03;0.90;;;10.60;93.20;;;;;;4879175;28;20090;-87
2021/04/10 11:40:20;;;;;;;5.30;0.50;;;10.80;94.40;;;;;;4863054;28;20084;-89
2021/04/10 11:42:49;;;;;;;6.75;0.85;;;11.10;93.40;;;;;;4873555;28;20079;-87
2021/04/10 11:45:23;;;;;;;6.65;0.90;;;10.80;92.30;;;;;;4871291;28;20185;-86
2021/04/10 11:47:46;;;;;;;6.28;0.70;;;10.60;95.40;;;;;;4879681;28;20080;-87
2021/04/10 11:50:11;;;;;;;4.32;0.80;;;10.60;92.20;;;;;;4879584;28;20545;-86
2021/04/10 11:52:34;;;;;;;2.45;0.63;;;10.70;93.50;;;;;;4882535;28;20198;-86
2021/04/10 11:55:09;;;;;;;5.22;0.60;;;10.60;95.30;;;;;;4872956;28;22728;-89
2021/04/10 11:57:35;;;;;;;6.82;1.00;;;10.40;97.80;;;;;;4878722;28;20091;-88
2021/04/10 12:00:04;;;;;;;8.50;0.80;;;10.10;97.10;;;;;;4868845;28;20088;-88
2021/04/10 12:02:33;;;;;;;2.65;0.30;;;9.80;95.80;;;;;;4878424;28;20132;-86
2021/04/10 12:04:55;;;;;;;5.35;0.77;;;9.80;97.60;;;;;;4881320;28;20225;-89
2021/04/10 12:07:19;;;;;;;7.20;0.70;;;9.80;96.90;;;;;;4867464;28;20112;-87
2021/04/10 12:09:43;;;;;;;3.00;0.50;;;9.60;96.90;;;;;;4861837;28;20148;-86
2021/04/10 12:12:10;;;;;;;2.15;0.52;;;9.20;98.20;;;;;;4862657;28;20089;-85
2021/04/10 12:14:32;;;;;;;6.72;0.95;;;9.10;97.40;;;;;;4880743;28;20093;-87
2021/04/10 12:16:55;;;;;;;3.92;0.60;;;9.30;97.50;;;;;;4869921;28;20096;-89
2021/04/10 12:19:19;;;;;;;5.47;0.70;;;9.10;96.30;;;;;;4876895;28;20104;-83
2021/04/10 12:21:42;;;;;;;6.32;0.98;;;9.10;94.90;;;;;;4878262;28;20493;-81
2021/04/10 12:24:05;;;;;;;3.75;0.65;;;9.40;96.60;;;;;;4879142;28;20117;-83
2021/04/10 12:26:28;;;;;;;2.17;0.50;;;9.30;94.30;;;;;;4869570;28;20077;-82
2021/04/10 12:28:51;;;;;;;2.83;0.70;;;9.00;90.60;;;;;;4880612;28;20085;-82
2021/04/10 12:31:13;;;;;;;1.85;0.40;;;9.40;90.20;;;;;;4878565;28;22665;-80
2021/04/10 12:33:36;;;;;;;4.07;0.50;;;9.50;89.10;;;;;;4877057;28;20088;-83
2021/04/10 12:36:00;;;;;;;2.80;0.40;;;9.70;88.10;;;;;;4875981;28;20319;-82
2021/04/10 12:38:22;;;;;;;2.20;0.45;;;10.10;89.20;;;;;;4869008;28;20089;-85
2021/04/10 12:40:45;;;;;;;1.75;0.30;;;9.90;83.20;;;;;;4880710;28;20088;-80
2021/04/10 12:43:08;;;;;;;3.88;0.43;;;10.20;88.40;;;;;;4880328;28;20085;-83
2021/04/10 12:45:31;;;;;;;2.13;0.63;;;10.20;75.80;;;;;;4877783;28;20096;-83
2021/04/10 12:47:53;;;;;;;3.63;0.50;;;10.20;80.40;;;;;;4877190;28;20514;-82
2021/04/10 12:50:18;;;;;;;5.32;0.70;;;10.20;91.20;;;;;;4878289;28;20143;-81